Time;durP1;ratioP1;P1;durP2;ratioP2;P2;SDS_P1;SDS_P2;PMS_P1;PMS_P2;Temp;Humidity;BMP_temperature;BMP_pressure;BME280_temperature;BME280_humidity;BME280_pressure;Samples;Min_cycle;Max_cycle;Signal;HPM_P1;HPM_P2
2022/06/26 00:00:53;;;;;;;5.57;5.13;;;;;25.80;100094.00;;;;2078516;28;20308;-51
2022/06/26 00:01:54;;;;;;;5.80;4.83;;;;;25.80;100110.00;;;;2078344;28;20692;-50
2022/06/26 00:02:55;;;;;;;6.33;5.83;;;;;25.80;100107.00;;;;2078411;28;20733;-50
2022/06/26 00:03:55;;;;;;;5.57;5.07;;;;;25.80;100106.00;;;;2078559;28;20210;-51
2022/06/26 00:04:55;;;;;;;5.00;4.60;;;;;25.80;100111.00;;;;2078502;28;20464;-50
2022/06/26 00:05:56;;;;;;;5.43;4.93;;;;;25.80;100118.00;;;;2078534;28;20233;-50
2022/06/26 00:06:59;;;;;;;5.70;5.20;;;;;25.80;100116.00;;;;2078345;28;20236;-50
2022/06/26 00:07:59;;;;;;;6.40;5.83;;;;;25.80;100117.00;;;;2077749;28;20202;-50
2022/06/26 00:09:00;;;;;;;5.90;5.23;;;;;25.80;100117.00;;;;2077913;28;21058;-51
2022/06/26 00:10:00;;;;;;;5.00;4.60;;;;;25.80;100121.00;;;;2077787;28;20235;-50
2022/06/26 00:11:01;;;;;;;5.73;5.20;;;;;25.80;100127.00;;;;2077311;28;20651;-51
2022/06/26 00:12:01;;;;;;;5.43;4.93;;;;;25.80;100123.00;;;;2077770;28;20244;-50
2022/06/26 00:13:01;;;;;;;4.97;4.57;;;;;25.80;100114.00;;;;2078551;28;20210;-50
2022/06/26 00:14:02;;;;;;;5.20;4.70;;;;;25.80;100125.00;;;;2078676;28;20297;-50
2022/06/26 00:15:02;;;;;;;5.13;4.73;;;;;25.80;100116.00;;;;2078417;28;20210;-51
2022/06/26 00:16:03;;;;;;;5.47;4.90;;;;;25.80;100116.00;;;;2078732;28;20197;-51
2022/06/26 00:17:03;;;;;;;5.07;4.57;;;;;25.80;100113.00;;;;2078478;28;20210;-51
2022/06/26 00:18:04;;;;;;;5.50;5.00;;;;;25.80;100110.00;;;;2077684;28;20206;-51
2022/06/26 00:19:04;;;;;;;5.00;4.60;;;;;25.80;100116.00;;;;2078602;28;20268;-50
2022/06/26 00:20:05;;;;;;;4.30;4.00;;;;;25.80;100120.00;;;;2077953;28;20221;-50
2022/06/26 00:21:05;;;;;;;5.33;4.83;;;;;25.80;100136.00;;;;2078131;28;20241;-51
2022/06/26 00:22:06;;;;;;;5.40;4.87;;;;;25.80;100155.00;;;;2077799;28;20994;-50
2022/06/26 00:23:06;;;;;;;8.10;4.67;;;;;25.40;100150.00;;;;2077523;28;20224;-50
2022/06/26 00:24:07;;;;;;;5.60;5.10;;;;;25.80;100157.00;;;;2078614;28;20213;-50
2022/06/26 00:25:08;;;;;;;6.53;4.67;;;;;25.80;100155.00;;;;2078356;28;20555;-50
2022/06/26 00:26:09;;;;;;;4.23;3.93;;;;;25.80;100151.00;;;;2078302;28;20650;-51
2022/06/26 00:27:09;;;;;;;5.07;4.67;;;;;25.80;100159.00;;;;2078442;28;20527;-51
2022/06/26 00:28:09;;;;;;;5.20;4.70;;;;;25.80;100162.00;;;;2077439;28;20213;-51
2022/06/26 00:29:10;;;;;;;4.53;4.13;;;;;25.80;100160.00;;;;2078499;28;20298;-51
2022/06/26 00:30:10;;;;;;;5.27;4.87;;;;;25.80;100147.00;;;;2078587;28;20233;-51
2022/06/26 00:31:11;;;;;;;5.53;5.00;;;;;25.80;100165.00;;;;2078439;28;20228;-51
2022/06/26 00:32:11;;;;;;;4.67;4.27;;;;;25.80;100155.00;;;;2078509;28;20682;-50
2022/06/26 00:33:11;;;;;;;4.17;3.77;;;;;25.80;100146.00;;;;2078135;28;20217;-50
2022/06/26 00:34:12;;;;;;;3.73;3.37;;;;;25.80;100146.00;;;;2078354;28;20214;-50
2022/06/26 00:35:12;;;;;;;4.97;4.57;;;;;25.80;100140.00;;;;2078323;28;20252;-50
2022/06/26 00:36:12;;;;;;;4.57;4.17;;;;;25.80;100130.00;;;;2078412;28;20718;-51
2022/06/26 00:37:12;;;;;;;4.53;4.13;;;;;25.80;100125.00;;;;2078435;28;20692;-51
2022/06/26 00:38:13;;;;;;;4.40;4.07;;;;;25.80;100124.00;;;;2077576;28;20682;-51
2022/06/26 00:39:13;;;;;;;4.43;4.03;;;;;25.80;100113.00;;;;2078292;28;20313;-51
2022/06/26 00:40:14;;;;;;;4.90;4.53;;;;;25.80;100104.00;;;;2078280;28;20214;-51
2022/06/26 00:41:14;;;;;;;4.13;3.83;;;;;25.80;100095.00;;;;2076265;28;20577;-51
2022/06/26 00:42:14;;;;;;;4.00;3.70;;;;;25.80;100089.00;;;;2078465;28;20271;-51
2022/06/26 00:43:15;;;;;;;4.27;3.87;;;;;25.80;100089.00;;;;2078390;28;20217;-51
2022/06/26 00:44:17;;;;;;;3.77;3.47;;;;;25.80;100081.00;;;;2078478;28;20682;-51
2022/06/26 00:45:17;;;;;;;3.93;3.63;;;;;25.80;99965.00;;;;2077509;28;20308;-51
2022/06/26 00:46:18;;;;;;;4.03;3.73;;;;;25.80;100078.00;;;;2078388;28;20959;-51
2022/06/26 00:47:18;;;;;;;3.93;3.63;;;;;25.80;100090.00;;;;2077707;28;20245;-51
2022/06/26 00:48:19;;;;;;;3.90;3.60;;;;;25.80;100076.00;;;;2078268;28;20272;-50
2022/06/26 00:49:19;;;;;;;4.17;3.77;;;;;25.80;100085.00;;;;2078418;28;20452;-50
2022/06/26 00:50:20;;;;;;;3.83;3.53;;;;;25.80;100085.00;;;;2078213;28;20221;-50
2022/06/26 00:51:20;;;;;;;3.10;2.90;;;;;25.80;100086.00;;;;2077965;28;20233;-50
2022/06/26 00:52:21;;;;;;;4.37;3.97;;;;;25.80;100094.00;;;;2078575;28;20221;-51
2022/06/26 00:53:21;;;;;;;3.67;3.40;;;;;25.80;100094.00;;;;2078353;28;20222;-51
2022/06/26 00:54:24;;;;;;;3.97;3.60;;;;;25.80;100098.00;;;;2077704;28;20214;-50
2022/06/26 00:55:24;;;;;;;4.00;3.70;;;;;25.80;100097.00;;;;2076883;28;20233;-51
2022/06/26 00:56:24;;;;;;;4.07;3.50;;;;;25.80;100091.00;;;;2078372;28;20559;-50
2022/06/26 00:57:25;;;;;;;3.83;3.40;;;;;25.80;100086.00;;;;2078486;28;20240;-50
2022/06/26 00:58:25;;;;;;;3.83;3.00;;;;;25.80;100085.00;;;;2079853;28;20217;-50
2022/06/26 00:59:25;;;;;;;3.57;3.27;;;;;25.80;100074.00;;;;2057113;28;20305;-50
2022/06/26 01:00:26;;;;;;;3.37;3.07;;;;;25.80;100093.00;;;;2047135;28;20216;-51
2022/06/26 01:01:26;;;;;;;3.70;3.40;;;;;25.80;100102.00;;;;2062756;28;20222;-50
2022/06/26 01:02:26;;;;;;;4.20;3.47;;;;;25.80;100117.00;;;;2071701;28;20217;-49
2022/06/26 01:03:27;;;;;;;3.37;3.10;;;;;25.80;100102.00;;;;2071692;28;20689;-50
2022/06/26 01:04:27;;;;;;;3.57;3.27;;;;;25.80;100108.00;;;;2071654;28;20741;-51
2022/06/26 01:05:27;;;;;;;3.50;3.20;;;;;25.80;100111.00;;;;2071301;28;20717;-50
2022/06/26 01:06:28;;;;;;;3.07;2.87;;;;;25.80;100108.00;;;;2071758;28;20214;-51
2022/06/26 01:07:28;;;;;;;3.00;2.70;;;;;25.80;100107.00;;;;2070731;28;20218;-50
2022/06/26 01:08:29;;;;;;;3.97;3.30;;;;;25.80;100100.00;;;;2071750;28;20206;-50
2022/06/26 01:09:29;;;;;;;2.90;2.70;;;;;25.80;100094.00;;;;2071337;28;20268;-51
2022/06/26 01:10:29;;;;;;;3.67;3.20;;;;;25.80;100087.00;;;;2071704;28;20305;-51
2022/06/26 01:11:30;;;;;;;3.20;2.97;;;;;25.80;100082.00;;;;2070702;28;20238;-50
2022/06/26 01:12:30;;;;;;;3.50;3.20;;;;;25.80;100082.00;;;;2071027;28;20301;-50
2022/06/26 01:13:30;;;;;;;3.30;2.80;;;;;25.80;100081.00;;;;2071709;28;20218;-51
2022/06/26 01:14:31;;;;;;;3.27;2.97;;;;;25.80;100081.00;;;;2062583;28;20602;-50
2022/06/26 01:15:31;;;;;;;3.27;3.00;;;;;25.80;100085.00;;;;2062558;28;20219;-49
2022/06/26 01:16:31;;;;;;;4.07;3.13;;;;;25.80;100087.00;;;;2079057;28;20225;-50
2022/06/26 01:17:32;;;;;;;3.30;3.00;;;;;25.80;100084.00;;;;2078745;28;20206;-51
2022/06/26 01:18:32;;;;;;;3.30;2.80;;;;;25.80;100070.00;;;;2062863;28;20326;-51
2022/06/26 01:19:33;;;;;;;3.20;2.90;;;;;25.80;100086.00;;;;2054913;28;20301;-51
2022/06/26 01:20:33;;;;;;;3.10;2.90;;;;;25.80;100088.00;;;;2061142;28;20219;-51
2022/06/26 01:21:33;;;;;;;3.33;3.03;;;;;25.80;100093.00;;;;2070869;28;20221;-51
2022/06/26 01:22:34;;;;;;;4.17;3.30;;;;;25.80;100099.00;;;;2078600;28;20221;-51
2022/06/26 01:23:34;;;;;;;3.03;2.83;;;;;25.80;100097.00;;;;2079493;28;20249;-51
2022/06/26 01:24:34;;;;;;;3.00;2.67;;;;;25.80;100088.00;;;;2079547;28;20217;-51
2022/06/26 01:25:46;;;;;;;3.30;3.10;;;;;25.80;100089.00;;;;2079771;28;20214;-50
2022/06/26 01:26:46;;;;;;;4.03;3.23;;;;;25.80;100090.00;;;;2079759;28;20322;-49
2022/06/26 01:27:46;;;;;;;2.77;2.57;;;;;25.80;100100.00;;;;2078694;28;20827;-50
2022/06/26 01:28:47;;;;;;;2.40;2.20;;;;;25.80;100108.00;;;;2079790;28;20531;-51
2022/06/26 01:29:47;;;;;;;2.90;2.70;;;;;25.80;100110.00;;;;2079648;28;20588;-51
2022/06/26 01:30:47;;;;;;;3.17;2.53;;;;;25.80;100120.00;;;;2079430;28;20336;-51
2022/06/26 01:31:48;;;;;;;2.97;2.77;;;;;25.80;100106.00;;;;2079412;28;20229;-51
2022/06/26 01:32:48;;;;;;;3.40;3.10;;;;;25.80;100117.00;;;;2079608;28;20225;-51
2022/06/26 01:33:48;;;;;;;3.40;3.00;;;;;25.70;100118.00;;;;2076156;28;20218;-50
2022/06/26 01:34:49;;;;;;;3.53;2.60;;;;;25.70;100124.00;;;;2079510;28;20222;-51
2022/06/26 01:35:49;;;;;;;3.33;3.03;;;;;25.70;100121.00;;;;2079529;28;21087;-50
2022/06/26 01:36:49;;;;;;;3.27;3.00;;;;;25.70;100125.00;;;;2079577;28;21029;-51
2022/06/26 01:37:50;;;;;;;3.40;3.20;;;;;25.70;100125.00;;;;2078869;28;20701;-51
2022/06/26 01:38:50;;;;;;;3.30;2.90;;;;;25.80;100138.00;;;;2076621;28;20332;-51
2022/06/26 01:39:50;;;;;;;3.20;3.00;;;;;25.80;100135.00;;;;2071476;28;20241;-50
2022/06/26 01:40:52;;;;;;;3.40;3.10;;;;;25.80;100126.00;;;;2071285;28;20214;-50
2022/06/26 01:41:52;;;;;;;3.30;3.00;;;;;25.70;100127.00;;;;2071375;28;20217;-51
2022/06/26 01:42:53;;;;;;;3.10;2.80;;;;;25.80;100125.00;;;;2071460;28;20210;-50
2022/06/26 01:43:53;;;;;;;4.27;2.90;;;;;25.80;100133.00;;;;2071485;28;20221;-50
2022/06/26 01:44:53;;;;;;;3.10;2.80;;;;;25.70;100128.00;;;;2079418;28;20213;-50
2022/06/26 01:45:54;;;;;;;3.50;3.20;;;;;25.80;100131.00;;;;2079625;28;20213;-50
2022/06/26 01:46:55;;;;;;;5.20;3.40;;;;;25.80;100128.00;;;;2079502;28;20216;-51
2022/06/26 01:47:55;;;;;;;3.17;2.87;;;;;25.70;100124.00;;;;2078643;28;20295;-51
2022/06/26 01:48:55;;;;;;;4.23;3.50;;;;;25.80;100129.00;;;;2079444;28;20217;-50
2022/06/26 01:49:56;;;;;;;3.30;3.00;;;;;25.70;100126.00;;;;2079397;28;20288;-51
2022/06/26 01:50:57;;;;;;;3.50;3.20;;;;;25.70;100124.00;;;;2078735;28;20214;-51
2022/06/26 01:51:57;;;;;;;3.45;3.15;;;;;25.50;100128.00;;;;2078604;28;20885;-51
2022/06/26 01:52:57;;;;;;;3.97;3.53;;;;;25.80;100116.00;;;;2079342;28;20245;-51
2022/06/26 01:53:58;;;;;;;3.20;2.90;;;;;25.70;100131.00;;;;2078781;28;20213;-50
2022/06/26 01:54:58;;;;;;;3.80;3.50;;;;;25.70;100139.00;;;;2078773;28;20596;-50
2022/06/26 01:55:58;;;;;;;3.50;3.20;;;;;25.70;100134.00;;;;2079218;28;20295;-50
2022/06/26 01:56:59;;;;;;;3.13;2.93;;;;;25.70;100143.00;;;;2079507;28;20210;-50
2022/06/26 01:58:02;;;;;;;4.47;3.33;;;;;25.70;100143.00;;;;2078725;28;20225;-52
2022/06/26 01:59:02;;;;;;;3.60;3.25;;;;;25.70;100159.00;;;;2078965;28;20292;-54
2022/06/26 02:00:05;;;;;;;3.00;2.80;;;;;25.70;100146.00;;;;2079586;28;20209;-53
2022/06/26 02:01:07;;;;;;;3.47;3.17;;;;;25.70;100143.00;;;;2078848;28;20312;-50
2022/06/26 02:02:07;;;;;;;3.83;3.53;;;;;25.70;100147.00;;;;2079563;28;20488;-50
2022/06/26 02:03:08;;;;;;;2.90;2.70;;;;;25.70;100153.00;;;;2078763;28;21078;-50
2022/06/26 02:04:08;;;;;;;4.60;3.80;;;;;25.70;100151.00;;;;2070362;28;20702;-50
2022/06/26 02:05:09;;;;;;;3.27;3.07;;;;;25.70;100152.00;;;;2078486;28;20650;-50
2022/06/26 02:06:10;;;;;;;3.30;3.00;;;;;25.70;100159.00;;;;2079478;28;20271;-50
2022/06/26 02:07:10;;;;;;;3.60;3.30;;;;;25.70;100157.00;;;;2079161;28;20214;-50
2022/06/26 02:08:11;;;;;;;3.80;2.90;;;;;25.70;100167.00;;;;2076299;28;20521;-50
2022/06/26 02:13:36;;;;;;;3.63;3.33;;;;;25.70;100168.00;;;;2078635;28;20224;-50
2022/06/26 02:14:28;;;;;;;3.95;3.65;;;;;25.70;100168.00;;;;2072246;28;20218;-50
2022/06/26 02:15:29;;;;;;;3.60;3.30;;;;;25.70;100168.00;;;;2071068;28;20218;-50
2022/06/26 02:16:30;;;;;;;3.40;3.10;;;;;25.70;100172.00;;;;2071135;28;20210;-50
2022/06/26 02:17:31;;;;;;;3.30;3.10;;;;;25.70;100173.00;;;;2070046;28;20245;-50
2022/06/26 02:18:31;;;;;;;3.43;3.13;;;;;25.70;100170.00;;;;2071039;28;20992;-50
2022/06/26 02:19:32;;;;;;;4.70;3.50;;;;;25.70;100169.00;;;;2071198;28;20690;-50
2022/06/26 02:20:32;;;;;;;4.30;3.90;;;;;25.70;100171.00;;;;2071211;28;20214;-50
2022/06/26 02:21:35;;;;;;;4.40;3.80;;;;;25.70;100167.00;;;;2070870;28;20219;-50
2022/06/26 02:22:36;;;;;;;3.60;3.30;;;;;25.70;100196.00;;;;2071162;28;20214;-50
2022/06/26 02:23:36;;;;;;;3.90;3.50;;;;;25.70;100174.00;;;;2067275;28;20849;-50
2022/06/26 02:24:36;;;;;;;4.20;3.03;;;;;25.70;100182.00;;;;2070779;28;20763;-52
2022/06/26 02:25:37;;;;;;;3.77;3.20;;;;;25.70;100176.00;;;;2071201;28;20590;-52
2022/06/26 02:26:37;;;;;;;3.70;3.40;;;;;25.70;100177.00;;;;2070787;28;20335;-51
2022/06/26 02:27:37;;;;;;;3.57;3.20;;;;;25.70;100178.00;;;;2070078;28;20241;-51
2022/06/26 02:28:38;;;;;;;4.80;3.53;;;;;25.70;100177.00;;;;2070437;28;20308;-51
2022/06/26 02:29:38;;;;;;;3.60;3.27;;;;;25.60;100186.00;;;;2070460;28;20261;-51
2022/06/26 02:30:39;;;;;;;4.03;3.53;;;;;25.70;100184.00;;;;2070919;28;20297;-50
2022/06/26 02:31:40;;;;;;;3.60;3.30;;;;;25.40;100193.00;;;;2070688;28;20261;-50
2022/06/26 02:32:41;;;;;;;3.60;3.30;;;;;25.70;100181.00;;;;2070313;28;20218;-50
2022/06/26 02:33:41;;;;;;;3.40;3.10;;;;;25.70;100192.00;;;;2070359;28;20445;-51
2022/06/26 02:34:42;;;;;;;3.70;3.07;;;;;25.70;100186.00;;;;2070415;28;20489;-50
2022/06/26 02:35:43;;;;;;;4.03;3.43;;;;;25.70;100186.00;;;;2070856;28;20206;-50
2022/06/26 02:36:43;;;;;;;4.03;3.60;;;;;25.70;100184.00;;;;2070858;28;20221;-49
2022/06/26 02:37:43;;;;;;;3.90;3.60;;;;;25.70;100180.00;;;;2069965;28;20468;-50
2022/06/26 02:38:44;;;;;;;3.37;3.07;;;;;25.70;100178.00;;;;2071110;28;20218;-50
2022/06/26 02:39:44;;;;;;;3.87;3.47;;;;;25.70;100178.00;;;;2070988;28;20230;-50
2022/06/26 02:40:45;;;;;;;4.87;3.27;;;;;25.70;100180.00;;;;2070987;28;20269;-50
2022/06/26 02:41:45;;;;;;;3.92;3.63;;;;;25.70;100181.00;;;;2070806;28;20210;-50
2022/06/26 02:42:46;;;;;;;3.60;3.30;;;;;25.70;100176.00;;;;2070664;28;20291;-50
2022/06/26 02:43:46;;;;;;;4.23;3.93;;;;;25.70;100177.00;;;;2071014;28;20210;-50
2022/06/26 02:44:46;;;;;;;4.43;3.47;;;;;25.70;100179.00;;;;2067337;28;20218;-50
2022/06/26 02:45:47;;;;;;;4.20;3.27;;;;;25.70;100179.00;;;;2070159;28;20210;-50
2022/06/26 02:46:47;;;;;;;3.60;3.20;;;;;25.70;100179.00;;;;2070943;28;20213;-51
2022/06/26 02:47:47;;;;;;;3.40;3.10;;;;;25.70;100174.00;;;;2070157;28;20974;-51
2022/06/26 02:48:48;;;;;;;3.50;3.20;;;;;25.70;100177.00;;;;2070836;28;20689;-51
2022/06/26 02:49:48;;;;;;;3.60;3.30;;;;;25.70;100181.00;;;;2070604;28;20264;-51
2022/06/26 02:50:48;;;;;;;3.37;3.07;;;;;25.70;100177.00;;;;2070956;28;20209;-51
2022/06/26 02:51:49;;;;;;;3.67;3.37;;;;;25.70;100172.00;;;;2070943;28;20221;-50
2022/06/26 02:52:49;;;;;;;3.37;2.93;;;;;25.70;100176.00;;;;2070745;28;20226;-51
2022/06/26 02:53:49;;;;;;;3.70;3.40;;;;;25.70;100185.00;;;;2070948;28;20205;-51
2022/06/26 02:54:50;;;;;;;2.70;2.50;;;;;25.70;100176.00;;;;2070719;28;20225;-51
2022/06/26 02:55:50;;;;;;;3.67;3.30;;;;;25.70;100176.00;;;;2070630;28;20580;-50
2022/06/26 02:56:51;;;;;;;3.30;2.97;;;;;25.70;100180.00;;;;2073988;28;20206;-49
2022/06/26 02:57:51;;;;;;;3.40;3.10;;;;;25.70;100186.00;;;;2077211;28;20632;-49
2022/06/26 02:58:51;;;;;;;3.20;2.90;;;;;25.70;100185.00;;;;2078851;28;20562;-51
2022/06/26 02:59:52;;;;;;;3.07;2.80;;;;;25.70;100182.00;;;;2079107;28;20682;-50
2022/06/26 03:00:52;;;;;;;3.10;2.80;;;;;25.70;100185.00;;;;2079018;28;20839;-50
2022/06/26 03:01:53;;;;;;;2.87;2.67;;;;;25.70;100184.00;;;;2078925;28;20216;-50
2022/06/26 03:02:53;;;;;;;3.10;2.80;;;;;25.70;100174.00;;;;2078788;28;20263;-50
2022/06/26 03:03:53;;;;;;;3.23;2.93;;;;;25.70;100177.00;;;;2072931;28;20210;-50
2022/06/26 03:04:54;;;;;;;2.80;2.60;;;;;25.70;100186.00;;;;2070724;28;20213;-50
2022/06/26 03:05:54;;;;;;;2.80;2.60;;;;;25.70;100177.00;;;;2070678;28;20230;-50
2022/06/26 03:06:54;;;;;;;3.27;3.00;;;;;25.70;100174.00;;;;2070726;28;20325;-50
2022/06/26 03:07:56;;;;;;;3.37;3.07;;;;;25.70;100179.00;;;;2069992;28;20210;-50
2022/06/26 03:08:56;;;;;;;2.92;2.63;;;;;25.70;100167.00;;;;2070747;28;20357;-50
2022/06/26 03:09:56;;;;;;;2.90;2.67;;;;;25.70;100185.00;;;;2078608;28;20302;-50
2022/06/26 03:10:57;;;;;;;2.70;2.50;;;;;25.70;100178.00;;;;2078114;28;20209;-50
2022/06/26 03:11:57;;;;;;;5.60;2.80;;;;;25.70;100181.00;;;;2072312;28;20214;-49
2022/06/26 03:12:57;;;;;;;2.53;2.33;;;;;25.40;100189.00;;;;2070684;28;20221;-50
2022/06/26 03:13:58;;;;;;;4.10;3.20;;;;;25.70;100189.00;;;;2069838;28;20245;-50
2022/06/26 03:14:58;;;;;;;2.90;2.70;;;;;25.70;100186.00;;;;2063801;28;20210;-50
2022/06/26 03:15:58;;;;;;;4.63;3.57;;;;;25.70;100197.00;;;;2086291;28;20212;-51
2022/06/26 03:16:59;;;;;;;2.97;2.70;;;;;25.70;100198.00;;;;2084324;28;20208;-50
2022/06/26 03:18:02;;;;;;;2.90;2.53;;;;;25.70;100201.00;;;;2074447;28;20230;-50
2022/06/26 03:19:02;;;;;;;2.30;2.10;;;;;25.70;100194.00;;;;2072302;28;20210;-50
2022/06/26 03:20:04;;;;;;;3.07;2.87;;;;;25.70;100200.00;;;;2077934;28;20234;-50
2022/06/26 03:21:05;;;;;;;3.30;3.00;;;;;25.70;100197.00;;;;2078598;28;20248;-50
2022/06/26 03:22:05;;;;;;;3.10;2.80;;;;;25.70;100195.00;;;;2078583;28;20618;-50
2022/06/26 03:23:06;;;;;;;4.80;3.17;;;;;25.70;100197.00;;;;2078457;28;20532;-50
2022/06/26 03:24:06;;;;;;;4.00;2.77;;;;;25.70;100219.00;;;;2078792;28;20220;-50
2022/06/26 03:25:07;;;;;;;2.93;2.73;;;;;25.70;100201.00;;;;2078626;28;20708;-50
2022/06/26 03:26:07;;;;;;;3.87;2.50;;;;;25.70;100204.00;;;;2078711;28;20689;-50
2022/06/26 03:27:08;;;;;;;4.80;2.87;;;;;25.70;100203.00;;;;2078598;28;20471;-50
2022/06/26 03:28:08;;;;;;;3.83;2.77;;;;;25.70;100213.00;;;;2078013;28;20237;-50
2022/06/26 03:29:09;;;;;;;2.83;2.57;;;;;25.70;100218.00;;;;2078801;28;20228;-51
2022/06/26 03:30:10;;;;;;;4.30;3.23;;;;;25.70;100220.00;;;;2078731;28;20229;-50
2022/06/26 03:31:10;;;;;;;3.20;2.90;;;;;25.70;100222.00;;;;2070390;28;20540;-50
2022/06/26 03:32:11;;;;;;;3.30;3.00;;;;;25.60;100224.00;;;;2070515;28;20449;-50
2022/06/26 03:33:11;;;;;;;2.90;2.70;;;;;25.60;100222.00;;;;2070751;28;20221;-50
2022/06/26 03:34:11;;;;;;;3.20;3.00;;;;;25.60;100217.00;;;;2070632;28;20214;-50
2022/06/26 03:35:12;;;;;;;4.80;3.03;;;;;25.60;100217.00;;;;2070660;28;20347;-50
2022/06/26 03:36:12;;;;;;;3.07;2.77;;;;;25.60;100225.00;;;;2070217;28;20221;-50
2022/06/26 03:37:12;;;;;;;3.10;2.80;;;;;25.60;100228.00;;;;2068273;28;20265;-50
2022/06/26 03:38:14;;;;;;;3.20;2.90;;;;;25.60;100223.00;;;;2068488;28;20246;-50
2022/06/26 03:39:14;;;;;;;3.50;3.20;;;;;25.60;100221.00;;;;2069303;28;20221;-51
2022/06/26 03:40:14;;;;;;;3.40;3.10;;;;;25.60;100227.00;;;;2070693;28;21253;-50
2022/06/26 03:41:15;;;;;;;4.97;3.30;;;;;25.60;100238.00;;;;2070739;28;20582;-50
2022/06/26 03:42:15;;;;;;;3.53;3.23;;;;;25.60;100244.00;;;;2070489;28;20210;-50
2022/06/26 03:43:15;;;;;;;3.40;3.10;;;;;25.60;100250.00;;;;2070713;28;20225;-50
2022/06/26 03:44:16;;;;;;;3.70;3.40;;;;;25.20;100251.00;;;;2070517;28;20221;-50
2022/06/26 03:45:16;;;;;;;3.60;3.30;;;;;25.60;100256.00;;;;2070113;28;20248;-50
2022/06/26 03:46:17;;;;;;;4.10;3.70;;;;;25.60;100252.00;;;;2070294;28;20222;-50
2022/06/26 03:47:17;;;;;;;3.63;3.33;;;;;25.60;100254.00;;;;2069851;28;20241;-50
2022/06/26 03:48:17;;;;;;;4.93;3.20;;;;;25.60;100258.00;;;;2070320;28;20652;-50
2022/06/26 03:49:18;;;;;;;5.00;3.73;;;;;25.60;100260.00;;;;2070274;28;20225;-50
2022/06/26 03:50:18;;;;;;;4.43;3.70;;;;;25.60;100265.00;;;;2070356;28;20214;-50
2022/06/26 03:51:18;;;;;;;3.70;3.40;;;;;25.60;100268.00;;;;2070608;28;20214;-50
2022/06/26 03:52:20;;;;;;;3.90;3.60;;;;;25.60;100270.00;;;;2070284;28;20222;-50
2022/06/26 03:53:20;;;;;;;3.88;3.33;;;;;25.60;100260.00;;;;2069654;28;20253;-51
2022/06/26 03:54:21;;;;;;;3.80;3.50;;;;;25.60;100265.00;;;;2069818;28;20276;-51
2022/06/26 03:55:21;;;;;;;3.90;3.43;;;;;25.60;100261.00;;;;2069406;28;20210;-52
2022/06/26 03:56:21;;;;;;;4.50;4.20;;;;;25.60;100263.00;;;;2078746;28;20243;-51
2022/06/26 03:57:21;;;;;;;3.70;3.40;;;;;25.60;100247.00;;;;2077090;28;20241;-51
2022/06/26 03:58:22;;;;;;;3.57;3.27;;;;;25.60;100240.00;;;;2071686;28;20240;-51
2022/06/26 03:59:23;;;;;;;4.20;3.57;;;;;25.60;100240.00;;;;2070516;28;20217;-51
2022/06/26 04:00:23;;;;;;;3.60;3.30;;;;;25.60;100242.00;;;;2070529;28;20229;-50
2022/06/26 04:01:23;;;;;;;4.40;4.00;;;;;25.60;100197.00;;;;2070578;28;20305;-50
2022/06/26 04:02:24;;;;;;;3.67;3.30;;;;;25.60;100242.00;;;;2070014;28;20588;-51
2022/06/26 04:03:24;;;;;;;3.93;3.63;;;;;25.60;100242.00;;;;2070220;28;20620;-51
2022/06/26 04:04:24;;;;;;;4.77;4.37;;;;;25.60;100242.00;;;;2070195;28;21118;-51
2022/06/26 04:05:25;;;;;;;3.97;3.67;;;;;25.60;100236.00;;;;2070462;28;20218;-51
2022/06/26 04:06:25;;;;;;;3.87;3.37;;;;;25.60;100237.00;;;;2070423;28;20210;-50
2022/06/26 04:07:25;;;;;;;3.33;3.03;;;;;25.60;100240.00;;;;2069541;28;20234;-50
2022/06/26 04:08:26;;;;;;;3.93;3.63;;;;;25.60;100238.00;;;;2070586;28;20634;-50
2022/06/26 04:09:26;;;;;;;4.47;3.63;;;;;25.60;100245.00;;;;2070432;28;20214;-50
2022/06/26 04:10:27;;;;;;;4.00;3.60;;;;;25.60;100254.00;;;;2070533;28;20626;-50
2022/06/26 04:11:27;;;;;;;3.80;3.50;;;;;25.60;100250.00;;;;2070552;28;20635;-51
2022/06/26 04:12:27;;;;;;;4.43;4.03;;;;;25.50;100251.00;;;;2070342;28;20214;-50
2022/06/26 04:13:28;;;;;;;4.20;3.80;;;;;25.50;100256.00;;;;2067054;28;20724;-50
2022/06/26 04:14:28;;;;;;;3.63;3.33;;;;;25.60;100254.00;;;;2069924;28;20693;-50
2022/06/26 04:15:30;;;;;;;4.80;3.60;;;;;25.50;100252.00;;;;2076566;28;20252;-50
2022/06/26 04:16:30;;;;;;;4.05;3.75;;;;;25.50;100256.00;;;;2078631;28;20757;-50
2022/06/26 04:17:30;;;;;;;4.07;3.70;;;;;25.60;100259.00;;;;2076499;28;20205;-50
2022/06/26 04:18:31;;;;;;;3.40;3.10;;;;;25.60;100258.00;;;;2070580;28;20236;-50
2022/06/26 04:19:31;;;;;;;4.33;3.93;;;;;25.50;100258.00;;;;2066188;28;20713;-50
2022/06/26 04:20:32;;;;;;;3.50;3.17;;;;;25.60;100267.00;;;;2070532;28;20240;-51
2022/06/26 04:21:32;;;;;;;3.50;3.20;;;;;25.50;100269.00;;;;2070438;28;20216;-51
2022/06/26 04:22:32;;;;;;;3.27;3.00;;;;;25.60;100259.00;;;;2070327;28;20702;-50
2022/06/26 04:23:33;;;;;;;3.43;3.13;;;;;25.50;100263.00;;;;2070192;28;20774;-50
2022/06/26 04:24:33;;;;;;;4.87;3.20;;;;;25.50;100263.00;;;;2070491;28;20440;-51
2022/06/26 04:25:36;;;;;;;3.90;3.60;;;;;25.50;100267.00;;;;2070606;28;20333;-50
2022/06/26 04:26:36;;;;;;;4.30;3.90;;;;;25.50;100274.00;;;;2070274;28;20260;-50
2022/06/26 04:27:37;;;;;;;4.03;3.67;;;;;25.50;100265.00;;;;2075533;28;20225;-50
2022/06/26 04:28:37;;;;;;;4.30;3.97;;;;;25.50;100273.00;;;;2071548;28;20884;-50
2022/06/26 04:29:37;;;;;;;3.90;3.13;;;;;25.50;100263.00;;;;2070405;28;20214;-50
2022/06/26 04:30:38;;;;;;;3.23;3.03;;;;;25.50;100275.00;;;;2075242;28;20209;-50
2022/06/26 04:31:38;;;;;;;3.70;3.40;;;;;25.50;100266.00;;;;2079855;28;20228;-50
2022/06/26 04:32:38;;;;;;;3.53;3.23;;;;;25.50;100264.00;;;;2071216;28;20225;-50
2022/06/26 04:33:39;;;;;;;4.10;3.50;;;;;25.50;100267.00;;;;2071298;28;20289;-50
2022/06/26 04:34:39;;;;;;;5.77;3.77;;;;;25.50;100268.00;;;;2079946;28;20217;-50
2022/06/26 04:35:39;;;;;;;3.83;3.53;;;;;25.50;100264.00;;;;2080192;28;20210;-50
2022/06/26 04:36:40;;;;;;;4.00;3.70;;;;;25.50;100267.00;;;;2080173;28;20209;-51
2022/06/26 04:37:40;;;;;;;4.63;3.23;;;;;25.50;100259.00;;;;2079239;28;20220;-50
2022/06/26 04:38:41;;;;;;;3.40;2.80;;;;;25.50;100262.00;;;;2068261;28;20211;-50
2022/06/26 04:39:41;;;;;;;3.73;3.40;;;;;25.50;100252.00;;;;2072230;28;20277;-50
2022/06/26 04:40:41;;;;;;;3.10;2.80;;;;;25.50;100250.00;;;;2071405;28;20290;-50
2022/06/26 04:41:42;;;;;;;4.60;3.53;;;;;25.50;100261.00;;;;2072077;28;20206;-51
2022/06/26 04:42:42;;;;;;;4.10;3.70;;;;;25.50;100256.00;;;;2071545;28;20233;-51
2022/06/26 04:43:42;;;;;;;5.90;3.50;;;;;25.50;100262.00;;;;2071607;28;20211;-51
2022/06/26 04:44:43;;;;;;;3.83;3.53;;;;;25.50;100247.00;;;;2071452;28;20242;-50
2022/06/26 04:45:43;;;;;;;4.03;3.73;;;;;25.50;100247.00;;;;2071434;28;20223;-51
2022/06/26 04:46:46;;;;;;;3.70;3.40;;;;;25.50;100241.00;;;;2071231;28;20229;-50
2022/06/26 04:47:46;;;;;;;3.75;3.35;;;;;25.50;100245.00;;;;2072400;28;20249;-51
2022/06/26 04:48:47;;;;;;;3.47;3.17;;;;;25.50;100253.00;;;;2073648;28;20217;-50
2022/06/26 04:49:47;;;;;;;3.53;3.27;;;;;25.50;100259.00;;;;2071589;28;20217;-50
2022/06/26 04:50:48;;;;;;;4.83;3.83;;;;;25.50;100262.00;;;;2070797;28;20236;-50
2022/06/26 04:51:48;;;;;;;4.53;3.27;;;;;25.50;100255.00;;;;2071521;28;20299;-50
2022/06/26 04:52:49;;;;;;;3.60;3.20;;;;;25.50;100258.00;;;;2077325;28;20717;-51
2022/06/26 04:53:50;;;;;;;5.20;4.00;;;;;25.50;100254.00;;;;2079756;28;20214;-50
2022/06/26 04:54:50;;;;;;;3.53;3.17;;;;;25.50;100252.00;;;;2078827;28;20209;-50
2022/06/26 04:55:51;;;;;;;3.53;3.23;;;;;25.50;100259.00;;;;2078934;28;20700;-50
2022/06/26 04:56:51;;;;;;;4.47;3.70;;;;;25.50;100259.00;;;;2079746;28;20214;-50
2022/06/26 04:57:51;;;;;;;3.80;3.47;;;;;25.50;100269.00;;;;2078711;28;20332;-50
2022/06/26 04:58:53;;;;;;;5.13;3.70;;;;;25.50;100266.00;;;;2079684;28;20272;-50
2022/06/26 04:59:53;;;;;;;3.35;3.10;;;;;25.50;100275.00;;;;2080038;28;20221;-50
2022/06/26 05:00:54;;;;;;;4.10;3.80;;;;;25.50;100283.00;;;;2077945;28;20673;-50
2022/06/26 05:01:54;;;;;;;3.50;3.20;;;;;25.50;100288.00;;;;2071537;28;20874;-50
2022/06/26 05:02:54;;;;;;;5.27;3.40;;;;;25.50;100283.00;;;;2075220;28;20937;-50
2022/06/26 05:03:55;;;;;;;4.07;3.77;;;;;25.50;100282.00;;;;2080011;28;20533;-51